createdAt,value
2018-04-16T00:00:50.175Z,3.37
2018-04-16T00:03:18.064Z,3.57
2018-04-16T00:05:45.576Z,3.23
2018-04-16T00:08:13.063Z,3.40
2018-04-16T00:10:40.567Z,3.90
2018-04-16T00:13:08.061Z,4.00
2018-04-16T00:15:35.582Z,3.10
2018-04-16T00:18:03.559Z,3.50
2018-04-16T00:20:31.076Z,3.33
2018-04-16T00:22:58.570Z,4.57
2018-04-16T00:25:26.119Z,3.50
2018-04-16T00:27:54.015Z,4.27
2018-04-16T00:30:21.899Z,4.20
2018-04-16T00:32:55.259Z,3.80
2018-04-16T00:35:28.452Z,3.50
2018-04-16T00:38:01.950Z,4.30
2018-04-16T00:40:35.170Z,4.17
2018-04-16T00:43:08.479Z,3.70
2018-04-16T00:45:41.756Z,4.87
2018-04-16T00:48:14.958Z,4.27
2018-04-16T00:50:48.528Z,4.73
2018-04-16T00:53:21.908Z,3.90
2018-04-16T00:55:55.456Z,3.60
2018-04-16T00:58:28.740Z,3.40
2018-04-16T01:01:02.367Z,4.20
2018-04-16T01:03:35.881Z,4.10
2018-04-16T01:06:08.996Z,3.87
2018-04-16T01:08:42.323Z,4.27
2018-04-16T01:14:17.931Z,5.03
2018-04-16T01:16:51.139Z,4.20
2018-04-16T01:19:24.336Z,3.47
2018-04-16T01:21:57.493Z,3.20
2018-04-16T01:24:30.798Z,3.70
2018-04-16T01:30:07.193Z,3.90
2018-04-16T01:32:40.456Z,3.87
2018-04-16T01:35:13.605Z,3.60
2018-04-16T01:37:47.115Z,3.80
2018-04-16T01:40:20.223Z,4.30
2018-04-16T01:42:53.350Z,3.73
2018-04-16T01:45:26.438Z,3.90
2018-04-16T01:47:59.542Z,3.97
2018-04-16T01:50:32.677Z,4.60
2018-04-16T01:53:05.914Z,3.53
2018-04-16T01:55:39.151Z,3.47
2018-04-16T01:58:12.839Z,3.70
2018-04-16T02:00:46.163Z,3.70
2018-04-16T02:03:19.386Z,4.13
2018-04-16T02:05:52.750Z,3.67
2018-04-16T02:08:26.352Z,4.03
2018-04-16T02:10:59.654Z,3.70
2018-04-16T02:13:32.917Z,3.77
2018-04-16T02:16:06.207Z,4.17
2018-04-16T02:18:39.540Z,4.13
2018-04-16T02:21:13.074Z,4.33
2018-04-16T02:23:46.632Z,4.40
2018-04-16T02:26:19.733Z,4.00
2018-04-16T02:28:53.103Z,3.90
2018-04-16T02:31:26.359Z,4.32
2018-04-16T02:33:59.483Z,3.80
2018-04-16T02:36:32.784Z,4.32
2018-04-16T02:39:06.276Z,4.05
2018-04-16T02:41:39.467Z,3.85
2018-04-16T02:44:12.830Z,4.50
2018-04-16T02:46:46.116Z,4.45
2018-04-16T02:49:19.361Z,4.22
2018-04-16T02:51:52.620Z,4.70
2018-04-16T02:54:25.823Z,3.87
2018-04-16T02:56:59.435Z,4.03
2018-04-16T02:59:32.723Z,4.25
2018-04-16T03:02:05.972Z,3.70
2018-04-16T03:04:39.317Z,3.80
2018-04-16T03:07:12.839Z,4.62
2018-04-16T03:09:46.591Z,4.10
2018-04-16T03:12:19.737Z,4.70
2018-04-16T03:14:52.994Z,4.10
2018-04-16T03:17:26.686Z,4.50
2018-04-16T03:19:59.874Z,4.32
2018-04-16T03:22:33.019Z,3.90
2018-04-16T03:25:06.326Z,4.32
2018-04-16T03:27:39.544Z,4.00
2018-04-16T03:30:12.697Z,4.62
2018-04-16T03:32:45.870Z,4.80
2018-04-16T03:35:19.134Z,4.40
2018-04-16T03:37:52.360Z,4.75
2018-04-16T03:40:25.558Z,5.35
2018-04-16T03:42:58.678Z,5.55
2018-04-16T03:45:31.856Z,5.65
2018-04-16T03:48:05.149Z,5.18
2018-04-16T03:50:38.715Z,4.37
2018-04-16T03:53:11.790Z,4.70
2018-04-16T03:55:58.428Z,5.05
2018-04-16T03:58:25.912Z,4.68
2018-04-16T04:00:53.891Z,6.60
2018-04-16T04:03:21.403Z,5.28
2018-04-16T04:05:48.892Z,6.05
2018-04-16T04:08:16.444Z,5.65
2018-04-16T04:10:44.051Z,5.62
2018-04-16T04:13:11.625Z,6.10
2018-04-16T04:15:39.567Z,4.87
2018-04-16T04:18:07.085Z,4.72
2018-04-16T04:20:34.571Z,5.45
2018-04-16T04:23:13.865Z,5.12
2018-04-16T04:25:53.117Z,6.00
2018-04-16T04:28:33.070Z,6.20
2018-04-16T04:31:00.666Z,5.40
2018-04-16T04:33:28.256Z,6.40
2018-04-16T04:35:56.259Z,6.07
2018-04-16T04:38:24.168Z,6.55
2018-04-16T04:40:51.658Z,6.70
2018-04-16T04:43:19.191Z,6.82
2018-04-16T04:45:46.777Z,6.50
2018-04-16T04:48:14.371Z,7.20
2018-04-16T04:50:41.965Z,6.70
2018-04-16T04:53:09.951Z,6.82
2018-04-16T04:55:37.465Z,7.12
2018-04-16T04:58:05.019Z,8.32
2018-04-16T05:00:32.519Z,8.95
2018-04-16T05:03:00.417Z,8.32
2018-04-16T05:05:27.946Z,11.70
2018-04-16T05:07:55.442Z,10.75
2018-04-16T05:10:22.965Z,8.60
2018-04-16T05:12:50.464Z,9.15
2018-04-16T05:15:17.968Z,9.70
2018-04-16T05:17:45.518Z,9.35
2018-04-16T05:20:13.022Z,9.35
2018-04-16T05:22:40.515Z,9.38
2018-04-16T05:25:08.031Z,8.93
2018-04-16T05:27:35.526Z,10.70
2018-04-16T05:30:03.084Z,9.80
2018-04-16T05:32:30.616Z,9.57
2018-04-16T05:34:58.105Z,11.15
2018-04-16T05:37:25.604Z,11.23
2018-04-16T05:39:53.142Z,11.02
2018-04-16T05:42:20.635Z,9.70
2018-04-16T05:44:48.568Z,12.52
2018-04-16T05:47:16.111Z,11.43
2018-04-16T05:49:44.032Z,10.13
2018-04-16T05:52:11.527Z,9.80
2018-04-16T05:54:39.039Z,9.90
2018-04-16T05:57:06.532Z,10.75
2018-04-16T05:59:34.069Z,11.50
2018-04-16T06:02:01.575Z,9.93
2018-04-16T06:04:29.124Z,10.00
2018-04-16T06:06:56.678Z,10.07
2018-04-16T06:09:24.200Z,10.80
2018-04-16T06:11:51.715Z,9.45
2018-04-16T06:14:19.231Z,9.60
2018-04-16T06:16:46.760Z,9.47
2018-04-16T06:19:14.266Z,8.83
2018-04-16T06:21:41.888Z,10.50
2018-04-16T06:24:09.801Z,9.60
2018-04-16T06:26:37.708Z,9.60
2018-04-16T06:29:05.264Z,9.77
2018-04-16T06:31:33.168Z,9.90
2018-04-16T06:34:01.069Z,9.57
2018-04-16T06:36:28.589Z,8.83
2018-04-16T06:38:56.088Z,9.70
2018-04-16T06:41:23.613Z,9.40
2018-04-16T06:43:51.495Z,9.03
2018-04-16T06:46:19.026Z,8.80
2018-04-16T06:48:46.535Z,10.23
2018-04-16T06:51:14.052Z,9.00
2018-04-16T06:53:41.962Z,10.43
2018-04-16T06:56:09.475Z,9.93
2018-04-16T06:58:36.977Z,8.90
2018-04-16T07:01:04.522Z,8.13
2018-04-16T07:03:32.076Z,7.83
2018-04-16T07:06:00.003Z,8.07
2018-04-16T07:08:27.517Z,8.07
2018-04-16T07:10:55.029Z,7.23
2018-04-16T07:13:22.915Z,7.63
2018-04-16T07:15:50.511Z,8.93
2018-04-16T07:18:18.401Z,8.30
2018-04-16T07:20:46.299Z,8.60
2018-04-16T07:23:13.865Z,8.80
2018-04-16T07:25:41.380Z,8.43
2018-04-16T07:28:08.931Z,8.50
2018-04-16T07:30:36.447Z,8.90
2018-04-16T07:33:03.960Z,8.00
2018-04-16T07:35:31.471Z,8.50
2018-04-16T07:37:58.969Z,8.43
2018-04-16T07:40:26.469Z,7.87
2018-04-16T07:42:54.380Z,8.10
2018-04-16T07:45:21.880Z,7.37
2018-04-16T07:47:49.386Z,8.20
2018-04-16T07:50:16.881Z,8.10
2018-04-16T07:52:44.397Z,7.37
2018-04-16T07:55:12.282Z,7.47
2018-04-16T07:57:40.179Z,7.93
2018-04-16T08:00:08.077Z,8.07
2018-04-16T08:02:35.653Z,8.07
2018-04-16T08:05:03.550Z,7.93
2018-04-16T08:07:31.465Z,8.90
2018-04-16T08:09:59.005Z,8.13
2018-04-16T08:12:26.477Z,8.40
2018-04-16T08:14:53.980Z,8.63
2018-04-16T08:17:21.889Z,8.43
2018-04-16T08:19:49.390Z,7.67
2018-04-16T08:22:16.918Z,8.10
2018-04-16T08:24:44.398Z,8.43
2018-04-16T08:27:11.909Z,7.80
2018-04-16T08:29:39.794Z,8.50
2018-04-16T08:32:07.299Z,8.70
2018-04-16T08:34:35.186Z,9.27
2018-04-16T08:37:03.122Z,8.73
2018-04-16T08:39:30.653Z,9.07
2018-04-16T08:41:58.563Z,10.30
2018-04-16T08:44:26.452Z,9.60
2018-04-16T08:46:54.364Z,8.73
2018-04-16T08:49:21.850Z,8.27
2018-04-16T08:51:49.369Z,9.77
2018-04-16T08:54:16.851Z,8.57
2018-04-16T08:56:44.364Z,7.90
2018-04-16T08:59:12.364Z,7.20
2018-04-16T09:01:40.276Z,7.03
2018-04-16T09:04:07.773Z,8.10
2018-04-16T09:06:35.277Z,7.97
2018-04-16T09:09:02.788Z,8.33
2018-04-16T09:11:30.277Z,7.77
2018-04-16T09:13:57.798Z,7.00
2018-04-16T09:16:25.291Z,7.03
2018-04-16T09:18:52.823Z,7.23
2018-04-16T09:21:20.308Z,7.50
2018-04-16T09:23:47.901Z,7.20
2018-04-16T09:26:15.786Z,8.90
2018-04-16T09:28:43.308Z,9.13
2018-04-16T09:31:10.869Z,9.40
2018-04-16T09:33:38.788Z,8.90
2018-04-16T09:36:06.344Z,8.43
2018-04-16T09:38:34.337Z,10.17
2018-04-16T09:41:02.237Z,9.30
2018-04-16T09:43:30.151Z,9.13
2018-04-16T09:45:57.639Z,9.40
2018-04-16T09:48:25.147Z,10.23
2018-04-16T09:50:52.637Z,10.20
2018-04-16T09:53:20.261Z,10.30
2018-04-16T09:55:48.157Z,9.67
2018-04-16T09:58:16.084Z,10.63
2018-04-16T10:00:49.310Z,11.07
2018-04-16T10:03:17.629Z,11.83
2018-04-16T10:05:45.128Z,11.20
2018-04-16T10:08:12.722Z,12.27
2018-04-16T10:10:40.227Z,13.13
2018-04-16T10:13:08.141Z,10.90
2018-04-16T10:15:35.630Z,11.93
2018-04-16T10:18:03.151Z,13.10
2018-04-16T10:20:30.643Z,11.20
2018-04-16T10:22:58.165Z,11.60
2018-04-16T10:25:25.668Z,12.90
2018-04-16T10:27:53.176Z,13.30
2018-04-16T10:30:20.667Z,13.37
2018-04-16T10:32:48.178Z,10.90
2018-04-16T10:35:15.751Z,12.40
2018-04-16T10:37:43.243Z,13.30
2018-04-16T10:40:10.767Z,12.00
2018-04-16T10:42:38.269Z,9.40
2018-04-16T10:45:05.775Z,9.10
2018-04-16T10:47:33.267Z,10.30
2018-04-16T10:50:00.859Z,10.70
2018-04-16T10:52:28.346Z,11.43
2018-04-16T10:54:55.856Z,11.57
2018-04-16T10:57:23.357Z,11.00
2018-04-16T10:59:50.888Z,9.47
2018-04-16T11:02:18.480Z,10.97
2018-04-16T11:04:45.982Z,11.63
2018-04-16T11:07:13.951Z,11.60
2018-04-16T11:09:41.464Z,11.60
2018-04-16T11:12:09.443Z,10.30
2018-04-16T11:14:37.350Z,10.93
2018-04-16T11:17:05.242Z,10.47
2018-04-16T11:19:32.746Z,9.80
2018-04-16T11:22:00.291Z,9.17
2018-04-16T11:24:28.275Z,7.93
2018-04-16T11:26:55.769Z,7.87
2018-04-16T11:29:23.717Z,8.93
2018-04-16T11:31:51.243Z,8.47
2018-04-16T11:34:18.763Z,8.60
2018-04-16T11:36:46.268Z,9.50
2018-04-16T11:39:13.787Z,9.80
2018-04-16T11:41:41.412Z,7.63
2018-04-16T11:44:09.088Z,6.80
2018-04-16T11:46:36.603Z,6.73
2018-04-16T11:49:04.125Z,5.73
2018-04-16T11:51:31.611Z,6.40
2018-04-16T11:53:59.219Z,6.03
2018-04-16T11:56:27.116Z,5.40
2018-04-16T11:58:54.615Z,5.10
2018-04-16T12:01:22.114Z,5.80
2018-04-16T12:03:49.594Z,4.80
2018-04-16T12:06:17.094Z,5.37
2018-04-16T12:08:44.588Z,5.83
2018-04-16T12:11:12.096Z,5.60
2018-04-16T12:13:39.579Z,5.50
2018-04-16T12:16:07.476Z,5.20
2018-04-16T12:18:35.412Z,5.60
2018-04-16T12:21:03.352Z,6.23
2018-04-16T12:23:30.931Z,11.97
2018-04-16T12:25:58.434Z,6.93
2018-04-16T12:28:26.319Z,9.30
2018-04-16T12:30:53.917Z,18.87
2018-04-16T12:33:21.871Z,6.13
2018-04-16T12:35:49.385Z,8.93
2018-04-16T12:38:17.376Z,28.10
2018-04-16T12:40:44.910Z,14.37
2018-04-16T12:43:12.409Z,15.60
2018-04-16T12:45:39.926Z,15.50
2018-04-16T12:48:07.573Z,14.30
2018-04-16T12:50:35.042Z,24.77
2018-04-16T12:53:02.571Z,5.00
2018-04-16T12:55:30.067Z,6.83
2018-04-16T12:57:57.951Z,10.50
2018-04-16T13:00:25.533Z,14.70
2018-04-16T13:02:53.027Z,12.60
2018-04-16T13:05:20.931Z,7.17
2018-04-16T13:07:48.867Z,5.43
2018-04-16T13:10:16.800Z,8.70
2018-04-16T13:12:44.383Z,6.40
2018-04-16T13:15:11.981Z,6.40
2018-04-16T13:17:39.868Z,7.00
2018-04-16T13:20:07.898Z,5.40
2018-04-16T13:22:35.768Z,4.60
2018-04-16T13:25:03.275Z,5.90
2018-04-16T13:27:30.820Z,5.73
2018-04-16T13:29:58.698Z,4.70
2018-04-16T13:32:26.194Z,5.33
2018-04-16T13:34:53.678Z,5.43
2018-04-16T13:37:21.264Z,5.13
2018-04-16T13:39:49.152Z,5.50
2018-04-16T13:42:16.669Z,6.60
2018-04-16T13:44:44.159Z,5.50
2018-04-16T13:47:11.659Z,4.70
2018-04-16T13:49:39.143Z,4.73
2018-04-16T13:52:06.660Z,4.20
2018-04-16T13:54:34.160Z,4.30
2018-04-16T13:57:02.091Z,5.43
2018-04-16T13:59:29.620Z,5.00
2018-04-16T14:01:57.317Z,5.33
2018-04-16T14:04:24.898Z,4.80
2018-04-16T14:06:52.493Z,4.37
2018-04-16T14:09:20.404Z,5.00
2018-04-16T14:11:47.906Z,4.63
2018-04-16T14:14:15.396Z,4.43
2018-04-16T14:16:42.909Z,4.47
2018-04-16T14:19:10.401Z,4.50
2018-04-16T14:21:38.243Z,4.17
2018-04-16T14:24:05.792Z,4.13
2018-04-16T14:26:33.695Z,5.70
2018-04-16T14:29:01.663Z,4.40
2018-04-16T14:31:29.176Z,4.07
2018-04-16T14:33:57.054Z,3.27
2018-04-16T14:36:24.644Z,4.20
2018-04-16T14:38:52.541Z,4.00
2018-04-16T14:41:20.529Z,3.90
2018-04-16T14:43:48.434Z,4.43
2018-04-16T14:46:16.399Z,5.47
2018-04-16T14:48:43.997Z,4.17
2018-04-16T14:51:11.513Z,4.13
2018-04-16T14:53:39.005Z,4.20
2018-04-16T14:56:06.490Z,4.77
2018-04-16T14:58:34.026Z,4.27
2018-04-16T15:01:01.910Z,5.90
2018-04-16T15:03:29.428Z,4.07
2018-04-16T15:05:56.986Z,3.47
2018-04-16T15:08:24.572Z,3.63
2018-04-16T15:10:52.073Z,3.50
2018-04-16T15:13:20.056Z,3.43
2018-04-16T15:15:47.951Z,4.00
2018-04-16T15:18:15.860Z,3.83
2018-04-16T15:20:43.411Z,3.57
2018-04-16T15:23:10.925Z,3.50
2018-04-16T15:25:38.518Z,3.83
2018-04-16T15:28:06.028Z,3.87
2018-04-16T15:30:33.510Z,3.13
2018-04-16T15:33:02.157Z,3.90
2018-04-16T15:35:29.752Z,3.03
2018-04-16T15:37:57.254Z,3.10
2018-04-16T15:40:25.220Z,3.63
2018-04-16T15:42:52.738Z,3.13
2018-04-16T15:45:20.246Z,2.93
2018-04-16T15:47:47.788Z,3.83
2018-04-16T15:50:15.676Z,2.90
2018-04-16T15:52:43.588Z,2.80
2018-04-16T15:55:11.477Z,3.37
2018-04-16T15:57:39.436Z,3.13
2018-04-16T16:00:07.023Z,3.10
2018-04-16T16:02:34.621Z,2.97
2018-04-16T16:05:02.113Z,2.50
2018-04-16T16:07:30.033Z,2.87
2018-04-16T16:09:57.532Z,3.47
2018-04-16T16:12:25.064Z,2.83
2018-04-16T16:14:52.535Z,2.93
2018-04-16T16:17:20.126Z,2.80
2018-04-16T16:19:47.620Z,2.40
2018-04-16T16:22:15.528Z,2.43
2018-04-16T16:24:43.416Z,2.70
2018-04-16T16:27:11.318Z,2.50
2018-04-16T16:29:38.875Z,2.63
2018-04-16T16:32:06.761Z,3.40
2018-04-16T16:34:34.328Z,2.60
2018-04-16T16:37:01.796Z,2.67
2018-04-16T16:39:29.323Z,2.60
2018-04-16T16:41:56.806Z,2.50
2018-04-16T16:44:24.788Z,2.37
2018-04-16T16:46:52.288Z,2.80
2018-04-16T16:49:20.277Z,2.57
2018-04-16T16:51:48.276Z,3.30
2018-04-16T16:54:16.194Z,2.70
2018-04-16T16:56:43.746Z,2.63
2018-04-16T16:59:11.317Z,2.77
2018-04-16T17:01:38.840Z,2.70
2018-04-16T17:04:06.353Z,2.83
2018-04-16T17:06:33.861Z,6.60
2018-04-16T17:09:01.485Z,5.23
2018-04-16T17:11:29.364Z,5.50
2018-04-16T17:13:57.273Z,3.30
2018-04-16T17:16:24.767Z,2.70
2018-04-16T17:18:52.280Z,2.93
2018-04-16T17:21:19.783Z,3.23
2018-04-16T17:23:47.326Z,2.90
2018-04-16T17:26:14.830Z,2.57
2018-04-16T17:28:42.342Z,2.63
2018-04-16T17:31:09.864Z,2.80
2018-04-16T17:33:37.415Z,8.20
2018-04-16T17:36:05.037Z,3.57
2018-04-16T17:38:32.622Z,2.53
2018-04-16T17:41:00.110Z,2.37
2018-04-16T17:43:27.620Z,3.40
2018-04-16T17:45:55.106Z,2.90
2018-04-16T17:48:22.656Z,3.00
2018-04-16T17:50:50.536Z,4.10
2018-04-16T17:53:18.509Z,2.80
2018-04-16T17:55:46.019Z,2.93
2018-04-16T17:58:13.510Z,3.90
2018-04-16T18:00:41.011Z,3.10
2018-04-16T18:03:08.508Z,3.33
2018-04-16T18:05:36.145Z,3.23
2018-04-16T18:08:04.141Z,6.07
2018-04-16T18:10:32.112Z,3.33
2018-04-16T18:12:59.990Z,3.67
2018-04-16T18:15:27.503Z,3.87
2018-04-16T18:17:55.013Z,3.70
2018-04-16T18:20:22.558Z,3.07
2018-04-16T18:22:50.556Z,3.13
2018-04-16T18:25:18.495Z,4.00
2018-04-16T18:27:45.983Z,3.70
2018-04-16T18:30:13.521Z,3.30
2018-04-16T18:32:41.424Z,3.97
2018-04-16T18:35:08.934Z,4.03
2018-04-16T18:37:36.427Z,3.63
2018-04-16T18:40:03.967Z,4.10
2018-04-16T18:42:31.920Z,4.00
2018-04-16T18:44:59.443Z,3.90
2018-04-16T18:47:27.336Z,3.23
2018-04-16T18:49:55.252Z,3.80
2018-04-16T18:52:22.809Z,3.80
2018-04-16T18:54:50.806Z,3.70
2018-04-16T18:57:18.797Z,3.70
2018-04-16T18:59:46.788Z,3.80
2018-04-16T19:02:14.291Z,4.00
2018-04-16T19:04:41.816Z,4.93
2018-04-16T19:07:09.304Z,3.80
2018-04-16T19:09:36.820Z,4.10
2018-04-16T19:12:04.735Z,4.27
2018-04-16T19:14:32.620Z,3.83
2018-04-16T19:17:00.542Z,4.90
2018-04-16T19:19:28.085Z,4.80
2018-04-16T19:21:55.992Z,4.00
2018-04-16T19:24:23.875Z,4.60
2018-04-16T19:26:57.439Z,4.40
2018-04-16T19:29:24.947Z,4.87
2018-04-16T19:31:52.571Z,4.03
2018-04-16T19:34:26.244Z,4.60
2018-04-16T19:36:53.769Z,4.90
2018-04-16T19:39:21.268Z,5.37
2018-04-16T19:41:54.866Z,5.40
2018-04-16T19:44:22.361Z,4.70
2018-04-16T19:46:49.859Z,4.20
2018-04-16T19:49:23.412Z,3.80
2018-04-16T19:51:50.921Z,4.50
2018-04-16T19:54:18.404Z,4.83
2018-04-16T19:56:51.551Z,4.30
2018-04-16T19:59:19.143Z,5.17
2018-04-16T20:01:52.427Z,5.00
2018-04-16T20:04:19.943Z,4.33
2018-04-16T20:06:47.442Z,3.90
2018-04-16T20:09:15.469Z,4.40
2018-04-16T20:11:43.019Z,4.47
2018-04-16T20:14:10.903Z,4.50
2018-04-16T20:16:38.433Z,5.27
2018-04-16T20:19:05.941Z,4.43
2018-04-16T20:21:33.469Z,4.27
2018-04-16T20:24:01.368Z,5.90
2018-04-16T20:26:29.263Z,5.30
2018-04-16T20:28:57.228Z,4.20
2018-04-16T20:31:24.839Z,6.30
2018-04-16T20:33:52.728Z,4.83
2018-04-16T20:36:20.637Z,5.23
2018-04-16T20:38:48.141Z,5.50
2018-04-16T20:41:15.648Z,5.80
2018-04-16T20:43:43.145Z,5.50
2018-04-16T20:46:10.650Z,5.03
2018-04-16T20:48:38.664Z,5.27
2018-04-16T20:51:06.181Z,4.87
2018-04-16T20:53:33.672Z,5.50
2018-04-16T20:56:01.197Z,5.17
2018-04-16T20:58:29.097Z,5.17
2018-04-16T21:00:57.012Z,5.20
2018-04-16T21:03:24.563Z,6.10
2018-04-16T21:05:52.471Z,5.90
2018-04-16T21:08:20.037Z,6.03
2018-04-16T21:10:47.965Z,6.10
2018-04-16T21:13:15.517Z,5.33
2018-04-16T21:15:43.413Z,5.80
2018-04-16T21:18:11.328Z,5.57
2018-04-16T21:20:38.879Z,6.30
2018-04-16T21:23:06.413Z,7.00
2018-04-16T21:25:34.179Z,6.30
2018-04-16T21:28:01.727Z,5.60
2018-04-16T21:30:29.225Z,6.73
2018-04-16T21:32:57.228Z,6.10
2018-04-16T21:35:25.238Z,7.70
2018-04-16T21:37:52.720Z,7.03
2018-04-16T21:40:20.221Z,7.77
2018-04-16T21:42:47.741Z,7.10
2018-04-16T21:45:15.349Z,7.43
2018-04-16T21:47:43.256Z,7.80
2018-04-16T21:50:11.237Z,7.47
2018-04-16T21:52:38.743Z,7.40
2018-04-16T21:55:06.256Z,7.23
2018-04-16T21:57:33.772Z,8.97
2018-04-16T22:00:01.384Z,7.03
2018-04-16T22:02:29.290Z,8.87
2018-04-16T22:04:56.787Z,7.80
2018-04-16T22:07:24.299Z,8.13
2018-04-16T22:09:51.789Z,9.40
2018-04-16T22:12:19.404Z,7.80
2018-04-16T22:14:47.310Z,9.37
2018-04-16T22:17:14.823Z,8.80
2018-04-16T22:19:42.351Z,8.57
2018-04-16T22:22:09.853Z,9.37
2018-04-16T22:24:37.830Z,8.90
2018-04-16T22:27:05.722Z,9.67
2018-04-16T22:29:33.276Z,9.50
2018-04-16T22:32:00.785Z,9.10
2018-04-16T22:34:28.300Z,9.23
2018-04-16T22:36:56.280Z,8.80
2018-04-16T22:39:24.191Z,8.63
2018-04-16T22:41:51.686Z,9.25
2018-04-16T22:44:19.222Z,9.82
2018-04-16T22:46:46.820Z,8.55
2018-04-16T22:49:14.744Z,9.07
2018-04-16T22:51:42.249Z,9.43
2018-04-16T22:54:09.762Z,9.40
2018-04-16T22:56:37.358Z,9.70
2018-04-16T22:59:05.278Z,8.95
2018-04-16T23:01:32.788Z,8.27
2018-04-16T23:04:00.328Z,10.20
2018-04-16T23:06:28.214Z,9.10
2018-04-16T23:08:55.737Z,9.73
2018-04-16T23:11:23.248Z,9.63
2018-04-16T23:13:50.871Z,10.00
2018-04-16T23:16:18.777Z,10.23
2018-04-16T23:18:46.687Z,9.00
2018-04-16T23:21:14.235Z,9.00
2018-04-16T23:23:41.761Z,9.30
2018-04-16T23:26:09.306Z,9.30
2018-04-16T23:28:36.827Z,9.00
2018-04-16T23:31:04.368Z,8.80
2018-04-16T23:33:31.879Z,8.60
2018-04-16T23:35:59.386Z,9.77
2018-04-16T23:38:26.918Z,9.10
2018-04-16T23:40:54.826Z,9.48
2018-04-16T23:43:22.748Z,8.55
2018-04-16T23:45:50.252Z,9.35
2018-04-16T23:48:17.751Z,9.43
2018-04-16T23:50:45.372Z,9.43
2018-04-16T23:53:13.272Z,8.88
2018-04-16T23:55:41.189Z,9.00
2018-04-16T23:58:08.691Z,8.80
